createdAt,value
2018-06-22T00:00:19.460Z,0
2018-06-22T00:01:29.602Z,0
2018-06-22T00:02:39.667Z,0
2018-06-22T00:03:49.488Z,0
2018-06-22T00:04:59.571Z,0
2018-06-22T00:06:09.666Z,0
2018-06-22T00:07:19.486Z,0
2018-06-22T00:08:29.573Z,0
2018-06-22T00:09:39.666Z,0
2018-06-22T00:10:49.739Z,0
2018-06-22T00:11:59.815Z,0
2018-06-22T00:13:09.891Z,0
2018-06-22T00:14:19.979Z,0
2018-06-22T00:15:30.060Z,0
2018-06-22T00:16:39.864Z,0
2018-06-22T00:17:49.943Z,0
2018-06-22T00:19:00.034Z,0
2018-06-22T00:20:12.171Z,0
2018-06-22T00:21:23.113Z,0
2018-06-22T00:22:32.914Z,0
2018-06-22T00:23:42.984Z,0
2018-06-22T00:24:53.055Z,0
2018-06-22T00:26:03.129Z,0
2018-06-22T00:27:12.962Z,0
2018-06-22T00:28:23.039Z,0
2018-06-22T00:29:33.121Z,0
2018-06-22T00:30:43.204Z,0
2018-06-22T00:31:53.021Z,0
2018-06-22T00:33:03.101Z,0
2018-06-22T00:34:13.190Z,0
2018-06-22T00:35:23.311Z,0
2018-06-22T00:36:33.396Z,0
2018-06-22T00:37:43.469Z,0
2018-06-22T00:38:53.301Z,0
2018-06-22T00:40:03.440Z,0
2018-06-22T00:41:13.579Z,0
2018-06-22T00:42:23.650Z,0
2018-06-22T00:43:33.730Z,0
2018-06-22T00:44:43.792Z,0
2018-06-22T00:45:53.603Z,0
2018-06-22T00:47:03.668Z,0
2018-06-22T00:48:13.763Z,0
2018-06-22T00:49:23.571Z,0
2018-06-22T00:50:33.389Z,0
2018-06-22T00:51:43.507Z,0
2018-06-22T00:52:53.582Z,0
2018-06-22T00:54:03.640Z,0
2018-06-22T00:55:13.449Z,0
2018-06-22T00:56:23.515Z,0
2018-06-22T00:57:34.577Z,0
2018-06-22T00:58:44.633Z,0
2018-06-22T00:59:54.763Z,0
2018-06-22T01:01:04.853Z,0
2018-06-22T01:02:14.665Z,0
2018-06-22T01:03:24.740Z,0
2018-06-22T01:04:34.559Z,0
2018-06-22T01:05:44.628Z,0
2018-06-22T01:06:54.704Z,0
2018-06-22T01:08:04.788Z,0
2018-06-22T01:09:14.917Z,0
2018-06-22T01:10:24.728Z,0
2018-06-22T01:11:34.802Z,0
2018-06-22T01:12:44.870Z,0
2018-06-22T01:13:54.960Z,0
2018-06-22T01:15:05.093Z,0
2018-06-22T01:16:15.163Z,0
2018-06-22T01:17:24.997Z,0
2018-06-22T01:18:35.076Z,0
2018-06-22T01:19:45.165Z,0
2018-06-22T01:20:55.248Z,0
2018-06-22T01:22:05.076Z,0
2018-06-22T01:23:15.151Z,0
2018-06-22T01:24:25.232Z,0
2018-06-22T01:25:35.042Z,0
2018-06-22T01:26:44.870Z,0
2018-06-22T01:27:54.943Z,0
2018-06-22T01:29:05.040Z,0
2018-06-22T01:30:14.632Z,0
2018-06-22T01:31:24.702Z,0
2018-06-22T01:32:34.770Z,0
2018-06-22T01:33:44.591Z,0
2018-06-22T01:34:54.393Z,0
2018-06-22T01:36:04.462Z,0
2018-06-22T01:37:14.512Z,0
2018-06-22T01:38:24.635Z,0
2018-06-22T01:39:34.731Z,0
2018-06-22T01:40:44.283Z,0
2018-06-22T01:41:54.348Z,0
2018-06-22T01:43:04.199Z,0
2018-06-22T01:44:14.338Z,0
2018-06-22T01:45:24.403Z,0
2018-06-22T01:46:34.477Z,0
2018-06-22T01:47:44.037Z,0
2018-06-22T01:48:54.113Z,0
2018-06-22T01:50:04.198Z,0
2018-06-22T01:51:14.012Z,0
2018-06-22T01:52:24.084Z,0
2018-06-22T01:53:34.158Z,0
2018-06-22T01:54:43.983Z,0
2018-06-22T01:55:54.113Z,0
2018-06-22T01:57:04.171Z,0
2018-06-22T01:58:14.229Z,0
2018-06-22T01:59:24.305Z,0
2018-06-22T02:00:34.435Z,0
2018-06-22T02:01:44.514Z,0
2018-06-22T02:02:54.605Z,0
2018-06-22T02:04:04.670Z,0
2018-06-22T02:05:14.779Z,0
2018-06-22T02:06:24.862Z,0
2018-06-22T02:07:34.731Z,0
2018-06-22T02:08:44.795Z,0
2018-06-22T02:09:54.864Z,0
2018-06-22T02:11:04.948Z,0
2018-06-22T02:12:15.017Z,0
2018-06-22T02:13:25.209Z,0
2018-06-22T02:14:35.026Z,0
2018-06-22T02:15:44.851Z,0
2018-06-22T02:16:54.916Z,0
2018-06-22T02:18:05.002Z,0
2018-06-22T02:19:14.823Z,0
2018-06-22T02:20:24.902Z,0
2018-06-22T02:21:34.992Z,0
2018-06-22T02:22:45.084Z,0
2018-06-22T02:23:55.172Z,0
2018-06-22T02:25:04.984Z,0
2018-06-22T02:26:15.049Z,0
2018-06-22T02:27:25.112Z,0
2018-06-22T02:28:35.242Z,4
2018-06-22T02:29:45.414Z,4
2018-06-22T02:30:54.709Z,4
2018-06-22T02:32:04.808Z,4
2018-06-22T02:33:14.880Z,0
2018-06-22T02:34:24.931Z,0
2018-06-22T02:35:34.774Z,4
2018-06-22T02:36:44.967Z,4
2018-06-22T02:37:55.039Z,4
2018-06-22T02:39:05.108Z,4
2018-06-22T02:40:15.218Z,4
2018-06-22T02:41:25.298Z,4
2018-06-22T02:42:35.377Z,4
2018-06-22T02:43:45.518Z,8
2018-06-22T02:44:55.640Z,8
2018-06-22T02:46:05.717Z,12
2018-06-22T02:47:15.533Z,12
2018-06-22T02:48:25.635Z,12
2018-06-22T02:49:35.439Z,16
2018-06-22T02:50:45.521Z,16
2018-06-22T02:51:55.779Z,16
2018-06-22T02:53:05.994Z,20
2018-06-22T02:54:15.869Z,20
2018-06-22T02:55:25.970Z,20
2018-06-22T02:56:35.798Z,24
2018-06-22T02:57:45.878Z,24
2018-06-22T02:58:55.687Z,24
2018-06-22T03:00:05.748Z,28
2018-06-22T03:01:15.845Z,24
2018-06-22T03:02:25.911Z,24
2018-06-22T03:34:40.190Z,72
2018-06-22T03:35:50.259Z,72
2018-06-22T03:37:00.314Z,76
2018-06-22T03:38:10.387Z,80
2018-06-22T03:39:20.192Z,88
2018-06-22T03:40:30.344Z,100
2018-06-22T03:41:40.190Z,108
2018-06-22T03:42:50.299Z,112
2018-06-22T03:44:00.373Z,120
2018-06-22T03:45:10.461Z,128
2018-06-22T03:46:20.344Z,132
2018-06-22T03:47:30.428Z,140
2018-06-22T03:48:39.986Z,144
2018-06-22T03:49:50.078Z,148
2018-06-22T03:51:00.147Z,152
2018-06-22T03:52:09.952Z,164
2018-06-22T03:53:20.019Z,176
2018-06-22T03:54:29.307Z,200
2018-06-22T03:55:39.385Z,216
2018-06-22T03:56:49.360Z,224
2018-06-22T03:57:59.582Z,236
2018-06-22T03:59:09.652Z,244
2018-06-22T04:00:19.465Z,256
2018-06-22T04:01:29.283Z,264
2018-06-22T04:02:39.354Z,276
2018-06-22T04:03:49.459Z,288
2018-06-22T04:04:59.262Z,300
2018-06-22T04:06:09.109Z,316
2018-06-22T04:07:19.191Z,332
2018-06-22T04:08:29.267Z,340
2018-06-22T04:09:39.355Z,348
2018-06-22T04:10:49.431Z,356
2018-06-22T04:11:59.242Z,372
2018-06-22T04:13:08.802Z,392
2018-06-22T04:14:18.879Z,416
2018-06-22T04:15:28.961Z,432
2018-06-22T04:16:39.047Z,428
2018-06-22T04:17:48.588Z,412
2018-06-22T04:18:58.151Z,384
2018-06-22T04:20:08.226Z,372
2018-06-22T04:21:18.305Z,368
2018-06-22T04:22:28.121Z,384
2018-06-22T04:23:37.927Z,396
2018-06-22T04:24:47.997Z,400
2018-06-22T04:25:58.107Z,392
2018-06-22T04:27:08.181Z,400
2018-06-22T04:28:18.261Z,428
2018-06-22T04:29:28.360Z,464
2018-06-22T04:30:38.435Z,488
2018-06-22T04:31:48.249Z,512
2018-06-22T04:32:58.381Z,532
2018-06-22T04:34:08.442Z,548
2018-06-22T04:35:18.515Z,552
2018-06-22T04:36:28.317Z,548
2018-06-22T04:37:38.391Z,548
2018-06-22T04:38:48.834Z,556
2018-06-22T04:39:58.894Z,568
2018-06-22T04:41:08.966Z,584
2018-06-22T04:42:18.523Z,596
2018-06-22T04:43:28.609Z,608
2018-06-22T04:44:38.729Z,612
2018-06-22T04:45:48.800Z,612
2018-06-22T04:46:58.878Z,612
2018-06-22T04:48:08.954Z,612
2018-06-22T04:49:18.774Z,620
2018-06-22T04:50:28.863Z,644
2018-06-22T04:51:38.947Z,684
2018-06-22T04:52:48.770Z,728
2018-06-22T04:53:58.838Z,752
2018-06-22T04:55:08.920Z,760
2018-06-22T04:56:18.703Z,760
2018-06-22T04:57:28.927Z,756
2018-06-22T04:58:39.006Z,748
2018-06-22T04:59:49.062Z,760
2018-06-22T05:00:59.129Z,796
2018-06-22T05:02:09.202Z,828
2018-06-22T05:03:19.296Z,848
2018-06-22T05:04:29.356Z,860
2018-06-22T05:05:39.414Z,864
2018-06-22T05:06:49.526Z,856
2018-06-22T05:07:59.649Z,852
2018-06-22T05:09:09.735Z,852
2018-06-22T05:10:19.814Z,852
2018-06-22T05:11:29.628Z,864
2018-06-22T05:12:39.704Z,888
2018-06-22T05:13:49.580Z,908
2018-06-22T05:14:59.645Z,916
2018-06-22T05:16:09.718Z,928
2018-06-22T05:17:19.807Z,940
2018-06-22T05:18:29.858Z,956
2018-06-22T05:19:39.651Z,976
2018-06-22T05:20:49.723Z,996
2018-06-22T05:21:59.787Z,1016
2018-06-22T05:23:09.874Z,1036
2018-06-22T05:24:19.937Z,1052
2018-06-22T05:25:30.013Z,1064
2018-06-22T05:26:39.839Z,1076
2018-06-22T05:27:49.920Z,1092
2018-06-22T05:29:00.019Z,1112
2018-06-22T05:30:09.866Z,1140
2018-06-22T05:31:20.000Z,1164
2018-06-22T05:32:30.072Z,1184
2018-06-22T05:33:40.152Z,1200
2018-06-22T05:34:50.218Z,1208
2018-06-22T05:36:00.502Z,1204
2018-06-22T05:37:10.596Z,1204
2018-06-22T05:38:20.653Z,1208
2018-06-22T05:39:30.722Z,1220
2018-06-22T05:40:40.528Z,1232
2018-06-22T05:41:50.326Z,1240
2018-06-22T05:43:00.128Z,1236
2018-06-22T05:44:10.202Z,1228
2018-06-22T05:45:20.053Z,1208
2018-06-22T05:46:30.151Z,1196
2018-06-22T05:47:40.216Z,1188
2018-06-22T05:48:50.023Z,1184
2018-06-22T05:50:00.100Z,1196
2018-06-22T05:51:10.405Z,1208
2018-06-22T05:52:20.467Z,1228
2018-06-22T05:53:30.284Z,1244
2018-06-22T05:54:40.354Z,1260
2018-06-22T05:55:50.162Z,1268
2018-06-22T05:57:00.371Z,1284
2018-06-22T05:58:10.187Z,1304
2018-06-22T05:59:20.243Z,1332
2018-06-22T06:00:29.791Z,1360
2018-06-22T06:01:39.599Z,1396
2018-06-22T06:02:49.137Z,1432
2018-06-22T06:03:59.225Z,1468
2018-06-22T06:05:09.043Z,1500
2018-06-22T06:06:19.149Z,1528
2018-06-22T06:07:29.205Z,1540
2018-06-22T06:08:39.267Z,1544
2018-06-22T06:09:48.823Z,1556
2018-06-22T06:10:58.943Z,1560
2018-06-22T06:12:09.019Z,1560
2018-06-22T06:13:18.834Z,1556
2018-06-22T06:14:28.899Z,1552
2018-06-22T06:15:38.988Z,1548
2018-06-22T06:16:49.058Z,1540
2018-06-22T06:17:59.136Z,1532
2018-06-22T06:19:08.694Z,1524
2018-06-22T06:20:18.787Z,1508
2018-06-22T06:21:28.604Z,1492
2018-06-22T06:22:38.697Z,1468
2018-06-22T06:23:48.800Z,1464
2018-06-22T06:24:58.864Z,1488
2018-06-22T06:26:08.941Z,1512
2018-06-22T06:27:19.174Z,1544
2018-06-22T06:28:29.327Z,1580
2018-06-22T06:29:39.180Z,1608
2018-06-22T06:30:48.999Z,1656
2018-06-22T06:31:59.089Z,1700
2018-06-22T06:33:08.926Z,1744
2018-06-22T06:34:19.143Z,1772
2018-06-22T06:35:29.374Z,1780
2018-06-22T06:36:39.196Z,1772
2018-06-22T06:37:49.006Z,1748
2018-06-22T06:38:59.071Z,1708
2018-06-22T06:40:09.169Z,1684
2018-06-22T06:41:19.252Z,1700
2018-06-22T06:42:29.335Z,1736
2018-06-22T06:43:39.155Z,1772
2018-06-22T06:44:49.230Z,1820
2018-06-22T06:45:59.310Z,1848
2018-06-22T06:47:09.113Z,1872
2018-06-22T06:48:18.930Z,1908
2018-06-22T06:49:29.026Z,1940
2018-06-22T06:50:39.148Z,1988
2018-06-22T06:51:49.249Z,2028
2018-06-22T06:52:59.364Z,2084
2018-06-22T06:54:09.450Z,2144
2018-06-22T06:55:19.524Z,2200
2018-06-22T06:56:29.601Z,2248
2018-06-22T06:57:39.715Z,2252
2018-06-22T06:58:49.780Z,2216
2018-06-22T06:59:59.585Z,2152
2018-06-22T07:01:09.693Z,2144
2018-06-22T07:02:19.512Z,2156
2018-06-22T07:03:29.590Z,2184
2018-06-22T07:04:39.673Z,2208
2018-06-22T07:05:49.495Z,2216
2018-06-22T07:06:59.561Z,2204
2018-06-22T07:08:09.650Z,2180
2018-06-22T07:09:19.726Z,2164
2018-06-22T07:10:29.518Z,2132
2018-06-22T07:11:39.592Z,2088
2018-06-22T07:12:49.679Z,2036
2018-06-22T07:13:59.757Z,2004
2018-06-22T07:15:09.854Z,1988
2018-06-22T07:16:19.925Z,1968
2018-06-22T07:17:29.996Z,1940
2018-06-22T07:18:39.804Z,1908
2018-06-22T07:19:49.875Z,1884
2018-06-22T07:20:59.707Z,1900
2018-06-22T07:22:09.824Z,1912
2018-06-22T07:23:19.937Z,1932
2018-06-22T07:24:30.073Z,1928
2018-06-22T07:25:40.150Z,1948
2018-06-22T07:26:50.230Z,1988
2018-06-22T07:27:59.787Z,2048
2018-06-22T07:29:09.602Z,2124
2018-06-22T07:30:19.692Z,2188
2018-06-22T07:31:29.768Z,2252
2018-06-22T07:32:39.580Z,2304
2018-06-22T07:33:49.644Z,2336
2018-06-22T07:34:59.467Z,2352
2018-06-22T07:36:09.927Z,2352
2018-06-22T07:37:19.733Z,2340
2018-06-22T07:38:29.526Z,2332
2018-06-22T07:39:39.344Z,2328
2018-06-22T07:40:49.416Z,2336
2018-06-22T07:41:59.507Z,2376
2018-06-22T07:43:09.582Z,2432
2018-06-22T07:44:19.649Z,2508
2018-06-22T07:45:29.456Z,2580
2018-06-22T07:46:39.336Z,2648
2018-06-22T07:47:49.427Z,2700
2018-06-22T07:48:59.500Z,2756
2018-06-22T07:50:09.308Z,2860
2018-06-22T07:51:19.383Z,2972
2018-06-22T07:52:29.240Z,3060
2018-06-22T07:53:39.319Z,3112
2018-06-22T07:54:49.126Z,3136
2018-06-22T07:55:59.184Z,3148
2018-06-22T07:57:09.332Z,3088
2018-06-22T07:58:19.454Z,2976
2018-06-22T07:59:29.561Z,2908
2018-06-22T08:00:39.626Z,2908
2018-06-22T08:01:49.699Z,3032
2018-06-22T08:02:59.764Z,3260
2018-06-22T08:04:09.875Z,3564
2018-06-22T08:05:19.699Z,3864
2018-06-22T08:06:29.999Z,4080
2018-06-22T08:07:39.808Z,4140
2018-06-22T08:08:49.921Z,4100
2018-06-22T08:09:59.494Z,4044
2018-06-22T08:11:09.563Z,4084
2018-06-22T08:12:19.648Z,4236
2018-06-22T08:13:29.705Z,4444
2018-06-22T08:14:39.876Z,4648
2018-06-22T08:15:49.788Z,4800
2018-06-22T08:17:00.036Z,4860
2018-06-22T08:18:09.860Z,4828
2018-06-22T08:19:19.955Z,4808
2018-06-22T08:20:29.787Z,4884
2018-06-22T08:21:39.636Z,5024
2018-06-22T08:22:49.716Z,5184
2018-06-22T08:23:59.805Z,5384
2018-06-22T08:25:09.913Z,5620
2018-06-22T08:26:19.989Z,5708
2018-06-22T08:27:30.089Z,5704
2018-06-22T08:28:40.171Z,5836
2018-06-22T08:29:49.989Z,5952
2018-06-22T08:31:00.085Z,6176
2018-06-22T08:32:09.942Z,6208
2018-06-22T08:33:20.077Z,6200
2018-06-22T08:34:31.655Z,6076
2018-06-22T08:35:44.560Z,5908
2018-06-22T08:36:55.345Z,5816
2018-06-22T08:38:05.162Z,5560
2018-06-22T08:39:15.264Z,5296
2018-06-22T08:40:24.807Z,5096
2018-06-22T08:41:35.158Z,4900
2018-06-22T08:42:45.394Z,4744
2018-06-22T08:43:55.225Z,4680
2018-06-22T08:45:05.048Z,4596
2018-06-22T08:46:15.169Z,4508
2018-06-22T08:47:25.255Z,4424
2018-06-22T08:48:35.329Z,4420
2018-06-22T08:49:45.395Z,4396
2018-06-22T08:50:55.030Z,4356
2018-06-22T08:52:05.178Z,4292
2018-06-22T08:53:14.990Z,4224
2018-06-22T08:54:25.062Z,4080
2018-06-22T08:55:34.885Z,3880
2018-06-22T08:56:45.156Z,3640
2018-06-22T08:57:55.272Z,3404
2018-06-22T08:59:05.341Z,3192
2018-06-22T09:00:15.410Z,3056
2018-06-22T09:01:25.735Z,2996
2018-06-22T09:02:35.898Z,3000
2018-06-22T09:03:45.723Z,3064
2018-06-22T09:04:55.837Z,3144
2018-06-22T09:06:05.960Z,3220
2018-06-22T09:07:16.049Z,3272
2018-06-22T09:08:26.253Z,3256
2018-06-22T09:09:36.352Z,3212
2018-06-22T09:10:45.910Z,3156
2018-06-22T09:11:55.453Z,3152
2018-06-22T09:13:05.543Z,3216
2018-06-22T09:14:15.615Z,3324
2018-06-22T09:15:25.761Z,3436
2018-06-22T09:16:35.572Z,3524
2018-06-22T09:17:45.667Z,3564
2018-06-22T09:18:55.738Z,3584
2018-06-22T09:20:05.802Z,3632
2018-06-22T09:21:15.881Z,3704
2018-06-22T09:22:25.730Z,3784
2018-06-22T09:23:35.842Z,3876
2018-06-22T09:24:45.930Z,3984
2018-06-22T09:25:56.019Z,4092
2018-06-22T09:27:05.846Z,4228
2018-06-22T09:28:15.936Z,4452
2018-06-22T09:29:26.007Z,4748
2018-06-22T09:30:35.814Z,5024
2018-06-22T09:31:45.627Z,5276
2018-06-22T09:32:55.718Z,5528
2018-06-22T09:34:05.809Z,5808
2018-06-22T09:35:15.914Z,6104
2018-06-22T09:36:25.986Z,6320
2018-06-22T09:37:36.080Z,6364
2018-06-22T09:38:46.153Z,6100
2018-06-22T09:39:56.238Z,5680
2018-06-22T09:41:06.335Z,5236
2018-06-22T09:42:16.145Z,4864
2018-06-22T09:43:26.249Z,4604
2018-06-22T09:44:36.326Z,4484
2018-06-22T09:45:46.438Z,4484
2018-06-22T09:46:56.539Z,4596
2018-06-22T09:48:06.420Z,4784
2018-06-22T09:49:16.242Z,4952
2018-06-22T09:50:26.361Z,5108
2018-06-22T09:51:36.447Z,5284
2018-06-22T09:52:46.502Z,5452
2018-06-22T09:53:56.324Z,5568
2018-06-22T09:55:06.489Z,5636
2018-06-22T09:56:16.424Z,5680
2018-06-22T09:57:26.501Z,5752
2018-06-22T09:58:36.587Z,5864
2018-06-22T09:59:46.676Z,5948
2018-06-22T10:00:56.594Z,5976
2018-06-22T10:02:06.444Z,5976
2018-06-22T10:03:16.275Z,5920
2018-06-22T10:04:26.370Z,5804
2018-06-22T10:05:36.450Z,5668
2018-06-22T10:06:46.001Z,5544
2018-06-22T10:07:56.081Z,5452
2018-06-22T10:09:06.161Z,5364
2018-06-22T10:10:16.264Z,5364
2018-06-22T10:11:26.213Z,5440
2018-06-22T10:12:36.390Z,5532
2018-06-22T10:13:46.476Z,5696
2018-06-22T10:14:56.570Z,5844
2018-06-22T10:16:06.652Z,5976
2018-06-22T10:17:16.476Z,6136
2018-06-22T10:18:26.569Z,6360
2018-06-22T10:19:36.759Z,6604
2018-06-22T10:20:46.959Z,6660
2018-06-22T10:21:57.042Z,6512
2018-06-22T10:23:06.862Z,6424
2018-06-22T10:24:16.691Z,6312
2018-06-22T10:25:26.767Z,6264
2018-06-22T10:26:36.851Z,6524
2018-06-22T10:27:46.678Z,6544
2018-06-22T10:28:56.757Z,6484
2018-06-22T10:30:06.846Z,6616
2018-06-22T10:31:16.683Z,6600
2018-06-22T10:32:26.765Z,6492
2018-06-22T10:33:36.843Z,6292
2018-06-22T10:34:46.949Z,6068
2018-06-22T10:35:57.039Z,5652
2018-06-22T10:37:07.132Z,5388
2018-06-22T10:38:16.956Z,5032
2018-06-22T10:39:27.180Z,4864
2018-06-22T10:40:37.268Z,4932
2018-06-22T10:41:47.392Z,5220
2018-06-22T10:42:57.482Z,5420
2018-06-22T10:44:07.579Z,5464
2018-06-22T10:45:17.658Z,5580
2018-06-22T10:46:27.492Z,5884
2018-06-22T10:47:37.596Z,6640
2018-06-22T10:48:47.678Z,7548
2018-06-22T10:49:57.776Z,10196
2018-06-22T10:51:07.867Z,11420
2018-06-22T10:52:17.930Z,11760
2018-06-22T10:53:28.030Z,11056
2018-06-22T10:54:38.121Z,9656
2018-06-22T10:55:47.968Z,10616
2018-06-22T10:56:57.813Z,9656
2018-06-22T10:58:07.635Z,8408
2018-06-22T10:59:17.716Z,9800
2018-06-22T11:00:27.806Z,8424
2018-06-22T11:01:37.888Z,8748
2018-06-22T11:02:47.706Z,8388
2018-06-22T11:03:57.529Z,8964
2018-06-22T11:05:07.626Z,7956
2018-06-22T11:06:17.700Z,7436
2018-06-22T11:07:27.534Z,8340
2018-06-22T11:08:37.364Z,7964
2018-06-22T11:09:47.459Z,7972
2018-06-22T11:10:57.577Z,8008
2018-06-22T11:12:07.709Z,7904
2018-06-22T11:13:17.548Z,7888
2018-06-22T11:14:28.433Z,7596
2018-06-22T11:15:38.552Z,7300
2018-06-22T11:16:50.204Z,7332
2018-06-22T11:18:00.768Z,6480
2018-06-22T11:19:11.077Z,7640
2018-06-22T11:20:23.039Z,7248
2018-06-22T11:21:35.564Z,7276
2018-06-22T11:22:47.722Z,7328
2018-06-22T11:24:00.082Z,7204
2018-06-22T11:25:12.163Z,6848
2018-06-22T11:26:23.538Z,7064
2018-06-22T11:27:34.318Z,7244
2018-06-22T11:28:44.412Z,7284
2018-06-22T11:29:54.281Z,7136
2018-06-22T11:31:04.124Z,6996
2018-06-22T11:32:14.384Z,6960
2018-06-22T11:33:24.191Z,7036
2018-06-22T11:34:34.318Z,7164
2018-06-22T11:35:44.132Z,7396
2018-06-22T11:36:54.027Z,7540
2018-06-22T11:38:03.850Z,7648
2018-06-22T11:39:13.946Z,7728
2018-06-22T11:40:24.131Z,7808
2018-06-22T11:41:34.261Z,4116
2018-06-22T11:42:44.341Z,8176
2018-06-22T11:43:54.154Z,4472
2018-06-22T11:45:04.023Z,4364
2018-06-22T11:46:14.101Z,7164
2018-06-22T11:47:24.173Z,7752
2018-06-22T11:48:34.254Z,7984
2018-06-22T11:49:44.341Z,8376
2018-06-22T11:50:54.406Z,8312
2018-06-22T11:52:04.302Z,6424
2018-06-22T11:53:14.390Z,5792
2018-06-22T11:54:24.472Z,6640
2018-06-22T11:55:34.562Z,9468
2018-06-22T11:56:44.651Z,9712
2018-06-22T11:57:54.574Z,8532
2018-06-22T11:59:04.435Z,10048
2018-06-22T12:00:14.330Z,7608
2018-06-22T12:01:23.894Z,6888
2018-06-22T12:02:34.006Z,6912
2018-06-22T12:03:43.824Z,10664
2018-06-22T12:04:54.217Z,10588
2018-06-22T12:06:04.329Z,10584
2018-06-22T12:07:14.423Z,7436
2018-06-22T12:08:24.513Z,7712
2018-06-22T12:09:34.586Z,7052
2018-06-22T12:10:44.421Z,7004
2018-06-22T12:11:54.525Z,7600
2018-06-22T12:13:04.603Z,7720
2018-06-22T12:14:14.683Z,6996
2018-06-22T12:15:24.833Z,6972
2018-06-22T12:16:34.926Z,6864
2018-06-22T12:17:44.739Z,6724
2018-06-22T12:18:54.822Z,6628
2018-06-22T12:20:04.968Z,6544
2018-06-22T12:21:14.844Z,6304
2018-06-22T12:22:24.925Z,6132
2018-06-22T12:23:35.028Z,5972
2018-06-22T12:24:44.881Z,5860
2018-06-22T12:25:54.701Z,5904
2018-06-22T12:27:04.564Z,6084
2018-06-22T12:28:14.378Z,6188
2018-06-22T12:29:24.460Z,6148
2018-06-22T12:30:34.533Z,6380
2018-06-22T12:31:44.658Z,6900
2018-06-22T12:32:54.582Z,6904
2018-06-22T12:34:04.693Z,6624
2018-06-22T12:35:14.516Z,6380
2018-06-22T12:36:24.607Z,6892
2018-06-22T12:37:34.698Z,6544
2018-06-22T12:38:44.617Z,6304
2018-06-22T12:39:54.687Z,5960
2018-06-22T12:41:04.779Z,5772
2018-06-22T12:42:14.600Z,5664
2018-06-22T12:43:24.687Z,5580
2018-06-22T12:44:34.246Z,5372
2018-06-22T12:45:44.315Z,5140
2018-06-22T12:46:54.392Z,4876
2018-06-22T12:48:04.499Z,4568
2018-06-22T12:49:14.333Z,4248
2018-06-22T12:50:24.455Z,3908
2018-06-22T12:51:34.564Z,3580
2018-06-22T12:52:44.641Z,3288
2018-06-22T12:53:54.754Z,3024
2018-06-22T12:55:04.864Z,2764
2018-06-22T12:56:14.961Z,2556
2018-06-22T12:57:24.516Z,2364
2018-06-22T12:58:34.341Z,2168
2018-06-22T12:59:44.427Z,1992
2018-06-22T13:00:54.577Z,1848
2018-06-22T13:02:04.684Z,1724
2018-06-22T13:03:14.755Z,1624
2018-06-22T13:04:24.862Z,1544
2018-06-22T13:05:34.693Z,1476
2018-06-22T13:06:44.516Z,1432
2018-06-22T13:07:54.603Z,1392
2018-06-22T13:09:04.720Z,1352
2018-06-22T13:10:14.591Z,1324
2018-06-22T13:11:24.414Z,1296
2018-06-22T13:12:34.489Z,1260
2018-06-22T13:13:44.633Z,1232
2018-06-22T13:14:54.715Z,1192
2018-06-22T13:16:04.801Z,1160
2018-06-22T13:17:14.951Z,1128
2018-06-22T13:18:24.767Z,1096
2018-06-22T13:19:34.605Z,1060
2018-06-22T13:20:44.723Z,1032
2018-06-22T13:21:54.544Z,1008
2018-06-22T13:23:04.877Z,988
2018-06-22T13:24:15.118Z,968
2018-06-22T13:25:24.984Z,960
2018-06-22T13:26:35.074Z,952
2018-06-22T13:27:45.176Z,948
2018-06-22T13:28:55.302Z,952
2018-06-22T13:30:05.142Z,952
2018-06-22T13:31:15.253Z,956
2018-06-22T13:32:25.080Z,960
2018-06-22T13:33:35.193Z,964
2018-06-22T13:34:45.291Z,976
2018-06-22T13:35:55.406Z,1000
2018-06-22T13:37:05.543Z,1028
2018-06-22T13:38:15.428Z,1064
2018-06-22T13:39:25.513Z,1112
2018-06-22T13:40:35.602Z,1176
2018-06-22T13:41:45.673Z,1256
2018-06-22T13:42:55.554Z,1372
2018-06-22T13:44:05.627Z,1480
2018-06-22T13:45:15.734Z,1580
2018-06-22T13:46:25.828Z,1688
2018-06-22T13:47:35.659Z,1812
2018-06-22T13:48:45.809Z,1952
2018-06-22T13:49:55.904Z,2108
2018-06-22T13:51:05.991Z,2280
2018-06-22T13:52:16.084Z,2492
2018-06-22T13:53:26.172Z,2752
2018-06-22T13:54:36.048Z,3032
2018-06-22T13:55:46.147Z,3248
2018-06-22T13:56:56.197Z,3356
2018-06-22T13:58:06.447Z,3360
2018-06-22T13:59:16.269Z,3432
2018-06-22T14:00:26.409Z,3612
2018-06-22T14:01:36.487Z,3812
2018-06-22T14:02:46.598Z,3968
2018-06-22T14:03:56.616Z,4244
2018-06-22T14:12:33.417Z,6576
2018-06-22T14:13:43.518Z,7424
2018-06-22T14:14:53.342Z,8152
2018-06-22T14:16:03.444Z,6448
2018-06-22T14:17:13.284Z,6280
2018-06-22T14:18:23.435Z,6188
2018-06-22T14:21:46.991Z,6616
2018-06-22T14:22:57.071Z,5648
2018-06-22T14:24:07.412Z,5604
2018-06-22T14:25:17.484Z,5360
2018-06-22T14:26:27.567Z,5476
2018-06-22T14:27:37.646Z,5388
2018-06-22T14:28:47.471Z,5456
2018-06-22T14:29:57.285Z,7088
2018-06-22T14:31:07.505Z,7272
2018-06-22T14:32:17.718Z,7260
2018-06-22T14:33:27.806Z,7132
2018-06-22T14:34:37.908Z,5156
2018-06-22T14:35:47.460Z,5256
2018-06-22T14:36:57.285Z,5560
2018-06-22T14:38:07.386Z,5676
2018-06-22T14:39:17.498Z,5668
2018-06-22T14:40:27.301Z,5588
2018-06-22T14:41:37.396Z,6492
2018-06-22T14:42:47.496Z,7016
2018-06-22T14:43:57.605Z,6228
2018-06-22T14:45:07.720Z,5816
2018-06-22T14:46:17.812Z,5788
2018-06-22T14:47:27.891Z,5564
2018-06-22T14:48:37.726Z,5444
2018-06-22T14:49:47.803Z,5764
2018-06-22T14:50:57.621Z,5936
2018-06-22T14:52:07.465Z,5760
2018-06-22T14:53:17.585Z,5316
2018-06-22T14:54:27.679Z,5136
2018-06-22T14:55:37.773Z,4944
2018-06-22T14:56:47.863Z,4948
2018-06-22T14:57:57.935Z,5068
2018-06-22T14:59:08.097Z,5160
2018-06-22T15:00:18.181Z,5024
2018-06-22T15:01:28.269Z,4904
2018-06-22T15:02:38.360Z,4816
2018-06-22T15:03:48.471Z,4820
2018-06-22T15:04:58.645Z,4772
2018-06-22T15:06:08.787Z,4712
2018-06-22T15:07:19.015Z,4600
2018-06-22T15:08:29.083Z,4544
2018-06-22T15:09:39.190Z,4508
2018-06-22T15:10:49.068Z,4436
2018-06-22T15:11:59.164Z,4328
2018-06-22T15:13:08.463Z,4216
2018-06-22T15:14:18.546Z,4196
2018-06-22T15:15:28.635Z,4228
2018-06-22T15:16:38.724Z,4272
2018-06-22T15:17:48.807Z,4220
2018-06-22T15:18:58.917Z,4100
2018-06-22T15:20:09.016Z,4008
2018-06-22T15:21:18.858Z,3912
2018-06-22T15:22:29.022Z,3828
2018-06-22T15:23:39.096Z,3732
2018-06-22T15:24:49.189Z,3640
2018-06-22T15:25:59.295Z,3548
2018-06-22T15:27:09.143Z,3396
2018-06-22T15:28:18.976Z,3208
2018-06-22T15:29:29.059Z,3076
2018-06-22T15:30:38.878Z,3024
2018-06-22T15:31:48.986Z,3064
2018-06-22T15:32:59.111Z,3128
2018-06-22T15:34:08.920Z,2956
2018-06-22T15:35:19.035Z,2712
2018-06-22T15:36:29.140Z,2628
2018-06-22T15:37:39.232Z,2672
2018-06-22T15:38:48.814Z,2664
2018-06-22T15:39:59.125Z,2652
2018-06-22T15:41:09.232Z,2676
2018-06-22T15:42:19.292Z,2728
2018-06-22T15:43:29.389Z,2656
2018-06-22T15:44:39.226Z,2388
2018-06-22T15:45:49.480Z,2060
2018-06-22T15:46:59.315Z,1796
2018-06-22T15:48:09.416Z,1564
2018-06-22T15:49:19.489Z,1372
2018-06-22T15:50:29.570Z,1192
2018-06-22T15:51:39.486Z,1064
2018-06-22T15:52:49.573Z,996
2018-06-22T15:53:59.675Z,972
2018-06-22T15:55:09.777Z,972
2018-06-22T15:56:19.851Z,1032
2018-06-22T15:57:29.956Z,1120
2018-06-22T15:58:40.077Z,1204
2018-06-22T15:59:50.245Z,1260
2018-06-22T16:01:00.626Z,1300
2018-06-22T16:02:10.514Z,1356
2018-06-22T16:03:20.688Z,1360
2018-06-22T16:04:30.797Z,1368
2018-06-22T16:05:40.927Z,1348
2018-06-22T16:06:51.078Z,1316
2018-06-22T16:08:01.183Z,1308
2018-06-22T16:09:11.036Z,1316
2018-06-22T16:10:21.119Z,1336
2018-06-22T16:11:31.290Z,1336
2018-06-22T16:12:41.407Z,1368
2018-06-22T16:13:51.509Z,1400
2018-06-22T16:15:01.326Z,1440
2018-06-22T16:16:11.420Z,1484
2018-06-22T16:17:21.504Z,1576
2018-06-22T16:18:31.394Z,1676
2018-06-22T16:19:41.524Z,1912
2018-06-22T16:20:51.700Z,2228
2018-06-22T16:22:02.044Z,2436
2018-06-22T16:23:12.296Z,2180
2018-06-22T16:24:22.416Z,2304
2018-06-22T16:25:32.523Z,2320
2018-06-22T16:26:42.833Z,2388
2018-06-22T16:27:52.927Z,2556
2018-06-22T16:29:03.067Z,2760
2018-06-22T16:30:12.948Z,2940
2018-06-22T16:31:23.118Z,3020
2018-06-22T16:32:33.239Z,3192
2018-06-22T16:33:43.338Z,3196
2018-06-22T16:34:53.416Z,3224